Atkinsons Mills, Pennsylvania
Current Conditions -  °F | °C
As of 4:55 AM on Tuesday 21 Oct 2014 (Local Time) from KUNV Reporting Station
Overcast Overcast  
Wind Chill:   Ceiling: 8500
Heat Index:   Visibility: 10mi
Dew Point:   Wind: 0mph
Humidity: 97%   Direction: NA
Pressure: 29.84"   Gusts: NA
Location:  40.5138°N, 77.7384°W
Report Text: KUNV 210855Z AUTO 00000KT 10SM SCT032 BKN085 OVC110 08/07 A2984 RMK AO2 60001 T00750070
Loading
Personal Weather Stations






























Interactive Weather Map
Tropical Storm Tracking
New forecast layout! Learn more

10-Day Weather Forecast

Advertisements
Track Severe Weather on mobile